Portada
METAR-TAF:

METAR-TAF

Aeroports :

Mason Jewett Field

Mason, Michigan, Estats Units d'Amèrica

latitud: 42-33-57N, longitud: 084-25-24W, altitud: 280 m

Observació

L'informe es va fer fa 14 minuts, a les 07:15 UTC
Vent 13 kt del Oest amb ràfegues de 22 kt
Temperatura 5°C
Humitat 75%
Pressió 1009 hPa
Visibilitat: 16.1 km
Cel ennuvolat a una alçada de 2300 ft
Cel cobert a una alçada de 3000 ft

METAR: KTEW 300715Z AUTO 27013G22KT 10SM BKN023 OVC030 05/01 A2979 RMK AO2 T00500006

Hora: 03:29 (07:29 UTC)


TAF: manca

Observacions i pronòstics meteorològics de més de 4000 aeroports (METAR i TAF).

Les estacions disponibles són els punts grocs i vermells al mapa.

Posi el ratolí al punt desitjat per veure el nom de l'estació.

Feu clic per veure les observacions i els pronòstics meteorològics.

Per canviar el mapa: feu clic els botons verds amb una creu de color negre per apropar; al botó verd amb un guió per allunyar la imatge; o en les fletxes verdes per a mapes adjacents.


METAR-TAF: